Time;durP1;ratioP1;P1;durP2;ratioP2;P2;SDS_P1;SDS_P2;PMS_P1;PMS_P2;Temp;Humidity;BMP_temperature;BMP_pressure;BME280_temperature;BME280_humidity;BME280_pressure;Samples;Min_cycle;Max_cycle;Signal;HPM_P1;HPM_P2
2022/08/05 00:02:17;;;;;;;15.35;6.50;;;;;;;;;;4888457;29;20143;-89
2022/08/05 00:04:48;;;;;;;15.85;6.18;;;;;;;;;;4883585;29;20056;-89
2022/08/05 00:07:22;;;;;;;17.33;6.47;;;;;;;;;;4897673;29;20463;-93
2022/08/05 00:10:09;;;;;;;14.60;5.85;;;;;;;;;;4902974;29;20131;-93
2022/08/05 00:12:37;;;;;;;14.27;5.65;;;;;;;;;;4919378;29;20048;-92
2022/08/05 00:15:23;;;;;;;13.98;6.03;;;;;;;;;;4903026;29;20526;-93
2022/08/05 00:18:11;;;;;;;16.55;6.25;;;;;;;;;;4899739;29;20563;-88
2022/08/05 00:20:50;;;;;;;14.73;6.03;;;;;;;;;;4901369;29;20051;-89
2022/08/05 00:23:18;;;;;;;14.45;5.03;;;;;;;;;;4894455;29;20048;-89
2022/08/05 00:26:06;;;;;;;11.02;4.97;;;;;;;;;;4910075;29;20092;-89
2022/08/05 00:28:34;;;;;;;9.88;4.95;;;;;;;;;;4899420;29;20104;-93
2022/08/05 00:31:12;;;;;;;13.48;4.75;;;;;;;;;;4906270;29;20075;-93
2022/08/05 00:33:45;;;;;;;11.05;4.55;;;;;;;;;;4902235;29;20143;-92
2022/08/05 00:36:33;;;;;;;9.65;4.85;;;;;;;;;;4901644;29;20048;-89
2022/08/05 00:39:25;;;;;;;9.75;3.78;;;;;;;;;;4901173;29;20410;-89
2022/08/05 00:42:07;;;;;;;9.57;3.88;;;;;;;;;;4884956;29;20401;-89
2022/08/05 00:45:00;;;;;;;10.95;4.20;;;;;;;;;;4892318;29;20047;-89
2022/08/05 00:47:27;;;;;;;9.60;3.92;;;;;;;;;;4905669;29;20059;-93
2022/08/05 00:50:15;;;;;;;7.45;3.30;;;;;;;;;;4923493;29;20055;-93
2022/08/05 00:52:43;;;;;;;9.52;3.83;;;;;;;;;;4910749;29;20406;-92
2022/08/05 00:55:18;;;;;;;7.20;3.30;;;;;;;;;;4901711;29;20062;-92
2022/08/05 00:57:47;;;;;;;6.82;3.70;;;;;;;;;;4899085;29;20056;-89
2022/08/05 01:00:30;;;;;;;6.80;3.10;;;;;;;;;;4900818;29;20056;-89
2022/08/05 01:03:23;;;;;;;4.97;2.78;;;;;;;;;;4908891;29;20164;-89
2022/08/05 01:05:57;;;;;;;8.70;2.92;;;;;;;;;;4891089;29;20155;-89
2022/08/05 01:08:30;;;;;;;6.47;2.75;;;;;;;;;;4901614;29;20044;-92
2022/08/05 01:11:20;;;;;;;9.13;2.80;;;;;;;;;;4888052;29;20058;-92
2022/08/05 01:14:02;;;;;;;6.55;2.50;;;;;;;;;;4916830;29;20499;-92
2022/08/05 01:16:44;;;;;;;6.53;2.60;;;;;;;;;;4896965;29;20052;-89
2022/08/05 01:19:32;;;;;;;6.38;2.20;;;;;;;;;;4908765;29;20096;-92
2022/08/05 01:22:49;;;;;;;6.55;2.50;;;;;;;;;;4885499;29;20044;-92
2022/08/05 01:25:56;;;;;;;5.60;2.08;;;;;;;;;;4888749;29;20076;-92
2022/08/05 01:28:26;;;;;;;5.63;2.10;;;;;;;;;;4896675;29;20068;-89
2022/08/05 01:30:58;;;;;;;5.22;2.03;;;;;;;;;;4906947;29;20044;-89
2022/08/05 01:33:33;;;;;;;4.75;2.00;;;;;;;;;;4901510;29;20056;-89
2022/08/05 01:36:08;;;;;;;5.43;2.05;;;;;;;;;;4889629;29;20981;-92
2022/08/05 01:38:48;;;;;;;5.20;1.70;;;;;;;;;;4887202;29;20143;-89
2022/08/05 01:41:22;;;;;;;7.70;2.20;;;;;;;;;;4905276;29;20138;-89
2022/08/05 01:43:53;;;;;;;4.18;1.90;;;;;;;;;;4879873;29;20818;-89
2022/08/05 01:46:23;;;;;;;3.90;1.85;;;;;;;;;;4907626;29;20487;-92
2022/08/05 01:49:12;;;;;;;5.90;1.85;;;;;;;;;;4896245;29;20698;-89
2022/08/05 01:52:17;;;;;;;4.72;2.20;;;;;;;;;;4905027;29;20056;-89
2022/08/05 01:54:55;;;;;;;4.18;1.80;;;;;;;;;;4905281;29;20143;-89
2022/08/05 01:57:51;;;;;;;5.40;1.92;;;;;;;;;;4876856;29;20055;-92
2022/08/05 02:00:48;;;;;;;5.05;1.75;;;;;;;;;;4921519;29;20044;-92
2022/08/05 02:03:23;;;;;;;3.55;1.77;;;;;;;;;;4890981;29;20052;-92
2022/08/05 02:06:01;;;;;;;4.50;1.70;;;;;;;;;;4887226;29;20083;-89
2022/08/05 02:08:40;;;;;;;5.65;1.95;;;;;;;;;;4915118;29;20746;-93
2022/08/05 02:11:41;;;;;;;6.15;1.92;;;;;;;;;;4887441;29;20052;-93
2022/08/05 02:14:26;;;;;;;4.07;1.98;;;;;;;;;;4891374;29;20072;-92
2022/08/05 02:17:06;;;;;;;5.10;1.98;;;;;;;;;;4908211;29;20059;-89
2022/08/05 02:19:48;;;;;;;4.55;2.10;;;;;;;;;;4905932;29;20059;-89
2022/08/05 02:22:25;;;;;;;4.60;1.88;;;;;;;;;;4906490;29;20115;-89
2022/08/05 02:25:23;;;;;;;3.50;1.80;;;;;;;;;;4902561;29;20591;-89
2022/08/05 02:28:21;;;;;;;6.15;1.80;;;;;;;;;;4885128;29;20444;-92
2022/08/05 02:34:10;;;;;;;4.88;1.88;;;;;;;;;;4916566;29;20579;-92
2022/08/05 02:36:52;;;;;;;4.65;1.98;;;;;;;;;;4911375;29;20048;-89
2022/08/05 02:39:28;;;;;;;6.53;2.35;;;;;;;;;;4891204;29;20191;-89
2022/08/05 02:41:57;;;;;;;4.45;1.73;;;;;;;;;;4904518;29;20456;-89
2022/08/05 02:44:30;;;;;;;6.85;1.88;;;;;;;;;;4880177;29;20056;-89
2022/08/05 02:46:58;;;;;;;6.88;1.73;;;;;;;;;;4909156;29;20068;-89
2022/08/05 02:49:50;;;;;;;4.63;2.20;;;;;;;;;;4909092;29;20063;-89
2022/08/05 02:52:18;;;;;;;5.25;2.05;;;;;;;;;;4894080;29;20127;-88
2022/08/05 02:54:59;;;;;;;5.03;1.80;;;;;;;;;;4917452;29;20388;-88
2022/08/05 02:58:20;;;;;;;9.13;2.60;;;;;;;;;;4906670;29;20056;-91
2022/08/05 03:00:52;;;;;;;3.97;2.10;;;;;;;;;;4906267;29;20075;-91
2022/08/05 03:03:20;;;;;;;4.45;2.28;;;;;;;;;;4919383;29;20051;-92
2022/08/05 03:05:51;;;;;;;7.63;2.88;;;;;;;;;;4919688;29;20071;-92
2022/08/05 03:08:40;;;;;;;7.43;2.55;;;;;;;;;;4884333;29;20083;-88
2022/08/05 03:11:21;;;;;;;7.95;2.42;;;;;;;;;;4896164;29;20677;-88
2022/08/05 03:14:19;;;;;;;4.18;2.10;;;;;;;;;;4906810;29;20053;-88
2022/08/05 03:17:11;;;;;;;5.15;2.30;;;;;;;;;;4905088;29;20969;-88
2022/08/05 03:19:39;;;;;;;5.07;2.78;;;;;;;;;;4899551;29;20143;-88
2022/08/05 03:22:37;;;;;;;5.10;2.55;;;;;;;;;;4919806;29;20127;-88
2022/08/05 03:25:21;;;;;;;5.15;2.70;;;;;;;;;;4919336;29;20530;-89
2022/08/05 03:28:10;;;;;;;9.15;2.20;;;;;;;;;;4908340;29;20056;-92
2022/08/05 03:30:42;;;;;;;6.00;2.65;;;;;;;;;;4903664;29;20048;-92
2022/08/05 03:33:20;;;;;;;6.15;2.45;;;;;;;;;;4894043;29;20048;-92
2022/08/05 03:36:14;;;;;;;4.88;2.40;;;;;;;;;;4879931;29;20489;-88
2022/08/05 03:39:04;;;;;;;6.70;2.70;;;;;;;;;;4893235;29;20052;-89
2022/08/05 03:41:40;;;;;;;7.85;2.35;;;;;;;;;;4911397;29;20140;-89
2022/08/05 03:44:14;;;;;;;7.43;2.70;;;;;;;;;;4896972;29;20067;-89
2022/08/05 03:46:47;;;;;;;6.60;2.35;;;;;;;;;;4903168;29;20052;-89
2022/08/05 03:50:07;;;;;;;8.98;2.55;;;;;;;;;;4909019;29;20491;-89
2022/08/05 03:53:18;;;;;;;5.70;2.50;;;;;;;;;;4906683;29;20079;-88
2022/08/05 03:56:27;;;;;;;6.63;2.67;;;;;;;;;;4874692;29;20053;-88
2022/08/05 03:59:06;;;;;;;6.43;2.40;;;;;;;;;;4871273;29;20797;-92
2022/08/05 04:01:41;;;;;;;6.70;2.38;;;;;;;;;;4882661;29;20063;-92
2022/08/05 04:04:13;;;;;;;6.60;2.60;;;;;;;;;;4899107;29;20076;-92
2022/08/05 04:06:49;;;;;;;5.00;2.90;;;;;;;;;;4910724;29;20080;-92
2022/08/05 04:09:18;;;;;;;7.13;2.65;;;;;;;;;;4884753;29;20614;-92
2022/08/05 04:11:58;;;;;;;8.50;2.80;;;;;;;;;;4891149;29;20087;-92
2022/08/05 04:14:50;;;;;;;6.15;2.42;;;;;;;;;;4901680;29;20139;-92
2022/08/05 04:17:42;;;;;;;6.70;3.20;;;;;;;;;;4888076;29;20048;-92
2022/08/05 04:20:23;;;;;;;6.63;3.08;;;;;;;;;;4882845;29;20050;-93
2022/08/05 04:23:15;;;;;;;7.20;2.72;;;;;;;;;;4901563;29;20407;-92
2022/08/05 04:26:07;;;;;;;6.50;2.45;;;;;;;;;;4911301;29;20104;-89
2022/08/05 04:28:39;;;;;;;5.40;2.53;;;;;;;;;;4876789;29;20615;-89
2022/08/05 04:31:43;;;;;;;6.18;2.38;;;;;;;;;;4902631;29;20052;-88
2022/08/05 04:34:19;;;;;;;6.47;2.83;;;;;;;;;;4881515;29;20053;-89
2022/08/05 04:37:25;;;;;;;4.97;2.60;;;;;;;;;;4902996;29;20087;-92
2022/08/05 04:40:17;;;;;;;5.25;2.58;;;;;;;;;;4902193;29;20045;-92
2022/08/05 04:42:45;;;;;;;5.20;2.58;;;;;;;;;;4883028;29;20076;-92
2022/08/05 04:48:21;;;;;;;6.43;3.00;;;;;;;;;;4931577;29;20044;-92
2022/08/05 04:50:56;;;;;;;7.97;3.20;;;;;;;;;;4927408;29;20130;-93
2022/08/05 04:53:41;;;;;;;5.43;2.65;;;;;;;;;;4923255;29;20130;-92
2022/08/05 04:56:16;;;;;;;6.57;2.88;;;;;;;;;;4925266;29;20059;-92
2022/08/05 04:59:27;;;;;;;6.40;2.67;;;;;;;;;;4901629;29;20049;-92
2022/08/05 05:02:07;;;;;;;5.07;2.72;;;;;;;;;;4901959;29;20055;-92
2022/08/05 05:04:59;;;;;;;5.82;3.20;;;;;;;;;;4901532;29;20060;-92
2022/08/05 05:07:30;;;;;;;9.95;3.58;;;;;;;;;;4901924;29;20056;-92
2022/08/05 05:10:04;;;;;;;6.55;3.17;;;;;;;;;;4883452;29;20068;-92
2022/08/05 05:12:33;;;;;;;6.20;3.20;;;;;;;;;;4882328;29;20079;-92
2022/08/05 05:15:04;;;;;;;7.85;3.40;;;;;;;;;;4898631;29;20484;-92
2022/08/05 05:17:39;;;;;;;7.63;2.97;;;;;;;;;;4915287;29;20459;-92
2022/08/05 05:20:23;;;;;;;6.35;2.95;;;;;;;;;;4885541;29;20082;-93
2022/08/05 05:23:03;;;;;;;7.97;3.78;;;;;;;;;;4930090;29;20131;-93
2022/08/05 05:25:45;;;;;;;9.73;3.60;;;;;;;;;;4922223;29;20051;-92
2022/08/05 05:28:38;;;;;;;6.28;3.30;;;;;;;;;;4900711;29;20055;-92
2022/08/05 05:31:56;;;;;;;5.82;3.38;;;;;;;;;;4904789;29;20040;-92
2022/08/05 05:34:30;;;;;;;6.72;3.90;;;;;;;;;;4901314;29;20143;-92
2022/08/05 05:36:57;;;;;;;6.28;3.53;;;;;;;;;;4922293;29;20059;-92
2022/08/05 05:39:49;;;;;;;9.90;4.00;;;;;;;;;;4921073;29;20044;-92
2022/08/05 05:42:41;;;;;;;7.07;3.67;;;;;;;;;;4911273;29;20138;-92
2022/08/05 05:45:37;;;;;;;6.78;3.60;;;;;;;;;;4895197;29;20106;-92
2022/08/05 05:48:15;;;;;;;7.25;3.60;;;;;;;;;;4906447;29;20050;-92
2022/08/05 05:50:43;;;;;;;8.18;3.70;;;;;;;;;;4907733;29;20491;-92
2022/08/05 05:53:12;;;;;;;6.07;3.65;;;;;;;;;;4869514;29;20056;-91
2022/08/05 05:55:49;;;;;;;6.60;3.35;;;;;;;;;;4900488;29;20058;-92
2022/08/05 05:58:29;;;;;;;5.30;3.40;;;;;;;;;;4912537;29;20072;-89
2022/08/05 06:01:21;;;;;;;4.68;3.42;;;;;;;;;;4901043;29;20079;-89
2022/08/05 06:03:49;;;;;;;8.18;3.83;;;;;;;;;;4922538;29;20159;-89
2022/08/05 06:06:29;;;;;;;7.85;3.58;;;;;;;;;;4905156;29;20140;-91
2022/08/05 06:09:05;;;;;;;6.90;3.67;;;;;;;;;;4885602;29;20060;-92
2022/08/05 06:11:34;;;;;;;7.57;3.72;;;;;;;;;;4900200;29;20056;-92
2022/08/05 06:14:32;;;;;;;7.28;4.18;;;;;;;;;;4904567;29;20047;-92
2022/08/05 06:17:26;;;;;;;6.25;3.40;;;;;;;;;;4887189;29;20044;-89
2022/08/05 06:20:23;;;;;;;7.38;3.70;;;;;;;;;;4911530;29;20520;-89
2022/08/05 06:23:15;;;;;;;8.20;4.03;;;;;;;;;;4893851;29;20168;-89
2022/08/05 06:25:44;;;;;;;5.88;3.42;;;;;;;;;;4892411;29;20510;-89
2022/08/05 06:28:31;;;;;;;7.63;3.88;;;;;;;;;;4903292;29;20055;-92
2022/08/05 06:31:01;;;;;;;6.82;3.70;;;;;;;;;;4897356;29;20395;-92
2022/08/05 06:34:07;;;;;;;8.88;3.90;;;;;;;;;;4906703;29;20055;-94
2022/08/05 06:36:49;;;;;;;6.25;3.55;;;;;;;;;;4883586;29;20076;-93
2022/08/05 06:39:25;;;;;;;7.30;3.70;;;;;;;;;;4911927;29;20063;-92
2022/08/05 06:42:02;;;;;;;6.40;3.90;;;;;;;;;;4900468;29;20124;-94
2022/08/05 06:44:36;;;;;;;7.05;3.95;;;;;;;;;;4905129;29;20075;-92
2022/08/05 06:47:09;;;;;;;5.20;3.42;;;;;;;;;;4913326;29;20052;-88
2022/08/05 06:49:58;;;;;;;6.20;3.47;;;;;;;;;;4895946;29;21004;-88
2022/08/05 06:52:27;;;;;;;8.95;4.07;;;;;;;;;;4910869;29;20056;-88
2022/08/05 06:55:08;;;;;;;9.00;4.10;;;;;;;;;;4893905;29;20052;-88
2022/08/05 06:57:41;;;;;;;8.23;3.70;;;;;;;;;;4899844;29;20096;-92
2022/08/05 07:01:05;;;;;;;8.90;3.67;;;;;;;;;;4900237;29;20104;-92
2022/08/05 07:03:33;;;;;;;9.00;3.85;;;;;;;;;;4899899;29;20384;-93
2022/08/05 07:06:03;;;;;;;8.02;4.20;;;;;;;;;;4899737;29;20138;-89
2022/08/05 07:08:42;;;;;;;7.57;4.07;;;;;;;;;;4914277;29;20076;-88
2022/08/05 07:11:18;;;;;;;10.05;4.13;;;;;;;;;;4889457;29;20056;-89
2022/08/05 07:16:48;;;;;;;9.05;3.58;;;;;;;;;;4922050;29;20525;-93
2022/08/05 07:19:41;;;;;;;6.60;3.38;;;;;;;;;;4899235;29;20052;-94
2022/08/05 07:22:56;;;;;;;7.30;3.53;;;;;;;;;;4907085;29;20059;-93
2022/08/05 07:25:27;;;;;;;6.95;3.83;;;;;;;;;;4913591;29;20057;-94
2022/08/05 07:28:16;;;;;;;8.32;3.85;;;;;;;;;;4907276;29;20422;-90
2022/08/05 07:30:49;;;;;;;6.72;3.72;;;;;;;;;;4907951;29;20499;-89
2022/08/05 07:33:21;;;;;;;6.43;3.38;;;;;;;;;;4904272;29;20108;-90
2022/08/05 07:36:04;;;;;;;8.43;4.00;;;;;;;;;;4883776;29;20057;-90
2022/08/05 07:38:48;;;;;;;7.30;3.28;;;;;;;;;;4922164;29;20425;-94
2022/08/05 07:41:23;;;;;;;8.00;3.58;;;;;;;;;;4903056;29;20047;-94
2022/08/05 07:44:21;;;;;;;7.25;3.17;;;;;;;;;;4912896;29;20053;-93
2022/08/05 07:46:49;;;;;;;6.57;3.92;;;;;;;;;;4900784;29;20131;-94
2022/08/05 07:49:23;;;;;;;8.20;3.50;;;;;;;;;;4900967;29;20113;-93
2022/08/05 07:51:53;;;;;;;6.35;3.25;;;;;;;;;;4890783;29;20051;-93
2022/08/05 07:54:25;;;;;;;7.38;3.65;;;;;;;;;;4885026;29;20060;-93
2022/08/05 07:56:58;;;;;;;6.15;3.20;;;;;;;;;;4882259;29;20064;-94
2022/08/05 07:59:45;;;;;;;6.32;3.28;;;;;;;;;;4889354;29;20058;-95
2022/08/05 08:02:15;;;;;;;6.22;3.25;;;;;;;;;;4918500;29;20063;-96
2022/08/05 08:04:47;;;;;;;6.97;3.53;;;;;;;;;;4933395;29;20064;-95
2022/08/05 08:07:20;;;;;;;8.82;3.70;;;;;;;;;;4895214;29;20052;-90
2022/08/05 08:09:56;;;;;;;5.10;3.40;;;;;;;;;;4915363;29;20563;-90
2022/08/05 08:12:24;;;;;;;7.57;3.20;;;;;;;;;;4912359;29;20056;-90
2022/08/05 08:15:10;;;;;;;7.18;3.70;;;;;;;;;;4890134;29;20488;-90
2022/08/05 08:17:47;;;;;;;8.13;3.67;;;;;;;;;;4901370;29;20115;-89
2022/08/05 08:20:21;;;;;;;9.23;3.40;;;;;;;;;;4887991;29;20052;-90
2022/08/05 08:23:09;;;;;;;7.68;3.10;;;;;;;;;;4904979;29;20052;-89
2022/08/05 08:26:27;;;;;;;6.07;3.00;;;;;;;;;;4902695;29;20059;-96
2022/08/05 08:28:56;;;;;;;5.15;3.03;;;;;;;;;;4877836;29;20127;-90
2022/08/05 08:31:29;;;;;;;8.70;2.97;;;;;;;;;;4891030;29;20467;-90
2022/08/05 08:34:25;;;;;;;6.53;3.00;;;;;;;;;;4902311;29;20052;-90
2022/08/05 08:37:00;;;;;;;8.90;3.60;;;;;;;;;;4898544;29;20513;-94
2022/08/05 08:39:34;;;;;;;7.63;3.20;;;;;;;;;;4910664;29;20052;-95
2022/08/05 08:42:04;;;;;;;6.60;2.92;;;;;;;;;;4902265;29;20044;-96
2022/08/05 08:44:53;;;;;;;6.85;3.30;;;;;;;;;;4902055;29;20056;-96
2022/08/05 08:47:44;;;;;;;8.30;3.47;;;;;;;;;;4883724;29;20647;-90
2022/08/05 08:50:35;;;;;;;6.07;2.75;;;;;;;;;;4911138;29;20560;-90
2022/08/05 08:54:13;;;;;;;7.27;3.13;;;;;;;;;;4891460;29;20075;-90
2022/08/05 08:56:42;;;;;;;5.80;3.25;;;;;;;;;;4914265;29;20307;-96
2022/08/05 08:59:18;;;;;;;8.15;2.60;;;;;;;;;;4901049;29;20483;-96
2022/08/05 09:01:48;;;;;;;5.45;2.80;;;;;;;;;;4885721;29;20063;-96
2022/08/05 09:05:35;;;;;;;4.25;2.40;;;;;;;;;;4901496;29;20056;-94
2022/08/05 09:08:27;;;;;;;6.13;2.55;;;;;;;;;;4913870;29;20448;-95
2022/08/05 09:10:58;;;;;;;5.35;2.70;;;;;;;;;;4901795;29;20541;-95
2022/08/05 09:13:33;;;;;;;7.43;2.42;;;;;;;;;;4901402;29;20249;-95
2022/08/05 09:16:21;;;;;;;5.70;2.33;;;;;;;;;;4898236;29;20060;-90
2022/08/05 09:18:53;;;;;;;5.60;2.65;;;;;;;;;;4900897;29;20060;-95
2022/08/05 09:21:47;;;;;;;4.13;2.47;;;;;;;;;;4904718;29;20562;-96
2022/08/05 09:24:41;;;;;;;5.25;2.60;;;;;;;;;;4901678;29;20056;-95
2022/08/05 09:27:39;;;;;;;4.57;2.38;;;;;;;;;;4887169;29;20091;-91
2022/08/05 09:30:29;;;;;;;4.75;2.15;;;;;;;;;;4908060;29;20063;-91
2022/08/05 09:33:01;;;;;;;9.15;2.70;;;;;;;;;;4881261;29;20111;-90
2022/08/05 09:35:35;;;;;;;3.85;2.20;;;;;;;;;;4900442;29;20384;-91
2022/08/05 09:38:05;;;;;;;4.13;2.40;;;;;;;;;;4908581;29;20066;-90
2022/08/05 09:40:52;;;;;;;4.22;2.38;;;;;;;;;;4894004;29;20056;-90
2022/08/05 09:43:32;;;;;;;4.60;2.28;;;;;;;;;;4894962;29;20048;-89
2022/08/05 09:46:26;;;;;;;5.95;2.50;;;;;;;;;;4898301;29;20059;-91
2022/08/05 09:48:57;;;;;;;5.32;2.15;;;;;;;;;;4891131;29;20059;-89
2022/08/05 09:51:47;;;;;;;4.00;2.17;;;;;;;;;;4894105;29;20043;-89
2022/08/05 09:57:35;;;;;;;5.60;2.47;;;;;;;;;;4909160;29;20139;-89
2022/08/05 10:00:15;;;;;;;6.85;2.40;;;;;;;;;;4893914;29;20139;-90
2022/08/05 10:02:49;;;;;;;4.03;2.30;;;;;;;;;;4907810;29;20160;-89
2022/08/05 10:05:19;;;;;;;4.88;1.80;;;;;;;;;;4899042;29;20062;-89
2022/08/05 10:07:53;;;;;;;4.60;2.05;;;;;;;;;;4895340;29;20048;-89
2022/08/05 10:11:16;;;;;;;4.50;2.10;;;;;;;;;;4898739;29;20044;-89
2022/08/05 10:14:21;;;;;;;;;;;;;;;;;;4890993;29;20434;-87
2022/08/05 10:17:14;;;;;;;5.25;2.05;;;;;;;;;;4916299;29;19927;-94
2022/08/05 10:20:02;;;;;;;4.40;2.28;;;;;;;;;;4883796;29;20052;-94
2022/08/05 10:22:39;;;;;;;5.50;2.20;;;;;;;;;;4903493;29;20498;-94
2022/08/05 10:25:15;;;;;;;4.75;2.47;;;;;;;;;;4898254;29;20060;-94
2022/08/05 10:27:48;;;;;;;5.22;2.35;;;;;;;;;;4905579;29;20056;-87
2022/08/05 10:30:41;;;;;;;5.40;2.40;;;;;;;;;;4891612;29;20514;-88
2022/08/05 10:33:32;;;;;;;7.15;2.53;;;;;;;;;;4907363;29;20139;-88
2022/08/05 10:36:05;;;;;;;11.18;3.10;;;;;;;;;;4883848;29;20056;-88
2022/08/05 10:38:39;;;;;;;13.88;3.00;;;;;;;;;;4895774;29;20056;-95
2022/08/05 10:41:40;;;;;;;10.63;2.83;;;;;;;;;;4880421;29;20059;-94
2022/08/05 10:44:17;;;;;;;;;;;;;;;;;;4896735;29;20056;-94
2022/08/05 10:46:52;;;;;;;11.63;2.33;;;;;;;;;;4899623;29;20254;-94
2022/08/05 10:49:24;;;;;;;11.93;2.33;;;;;;;;;;4904012;29;20479;-94
2022/08/05 10:52:01;;;;;;;4.95;2.63;;;;;;;;;;4918084;29;20470;-94
2022/08/05 10:54:46;;;;;;;7.50;3.42;;;;;;;;;;4865313;29;20151;-95
2022/08/05 10:57:27;;;;;;;4.72;2.50;;;;;;;;;;4915454;29;20055;-95
2022/08/05 11:00:23;;;;;;;6.03;2.50;;;;;;;;;;4914747;29;20475;-95
2022/08/05 11:03:08;;;;;;;7.10;2.20;;;;;;;;;;4900101;29;20048;-96
2022/08/05 11:06:08;;;;;;;4.80;2.22;;;;;;;;;;4903876;29;20062;-89
2022/08/05 11:09:15;;;;;;;5.53;2.30;;;;;;;;;;4900720;29;20059;-89
2022/08/05 11:11:48;;;;;;;4.00;2.10;;;;;;;;;;4894358;29;20426;-89
2022/08/05 11:14:30;;;;;;;8.25;2.50;;;;;;;;;;4903397;29;20090;-88
2022/08/05 11:17:26;;;;;;;;;;;;;;;;;;4900097;29;20104;-88
2022/08/05 11:20:38;;;;;;;6.10;2.45;;;;;;;;;;4914988;29;19922;-88
2022/08/05 11:23:51;;;;;;;8.40;2.20;;;;;;;;;;4910066;29;20055;-88
2022/08/05 11:26:39;;;;;;;6.63;2.20;;;;;;;;;;4908875;29;20064;-95
2022/08/05 11:29:33;;;;;;;6.32;2.55;;;;;;;;;;4884542;29;20045;-95
2022/08/05 11:32:34;;;;;;;4.88;2.10;;;;;;;;;;4900086;29;20091;-95
2022/08/05 11:35:51;;;;;;;6.28;2.40;;;;;;;;;;4867463;29;20519;-96
2022/08/05 11:39:04;;;;;;;6.05;2.45;;;;;;;;;;4879980;29;20508;-95
2022/08/05 11:41:35;;;;;;;7.13;2.53;;;;;;;;;;4879704;29;20067;-96
2022/08/05 11:45:02;;;;;;;5.25;2.20;;;;;;;;;;4873413;29;20101;-93
2022/08/05 11:47:34;;;;;;;5.38;2.17;;;;;;;;;;4884114;29;20064;-93
2022/08/05 11:50:26;;;;;;;4.15;1.90;;;;;;;;;;4882172;29;20521;-93
2022/08/05 11:53:03;;;;;;;4.57;2.05;;;;;;;;;;4879181;29;20193;-93
2022/08/05 11:55:35;;;;;;;6.47;1.83;;;;;;;;;;4895512;29;20669;-92
2022/08/05 11:58:03;;;;;;;5.70;2.35;;;;;;;;;;4867818;29;20554;-92
2022/08/05 12:01:04;;;;;;;6.60;2.25;;;;;;;;;;4883924;29;20064;-92
2022/08/05 12:03:53;;;;;;;4.05;1.60;;;;;;;;;;4898748;29;20076;-92
2022/08/05 12:06:48;;;;;;;3.53;1.70;;;;;;;;;;4897825;29;20068;-88
2022/08/05 12:09:25;;;;;;;4.28;1.80;;;;;;;;;;4885650;29;20561;-89
2022/08/05 12:12:28;;;;;;;5.25;1.85;;;;;;;;;;4901995;29;20155;-89
2022/08/05 12:14:58;;;;;;;3.15;1.48;;;;;;;;;;4892855;29;20412;-89
2022/08/05 12:17:49;;;;;;;7.82;1.85;;;;;;;;;;4896717;29;20138;-89
2022/08/05 12:20:38;;;;;;;3.75;1.70;;;;;;;;;;4909062;29;20135;-89
2022/08/05 12:23:12;;;;;;;3.38;1.83;;;;;;;;;;4910848;29;20143;-88
2022/08/05 12:25:51;;;;;;;3.20;1.67;;;;;;;;;;4899443;29;20404;-89
2022/08/05 12:28:40;;;;;;;3.83;1.80;;;;;;;;;;4914715;29;20083;-92
2022/08/05 12:31:33;;;;;;;3.50;1.50;;;;;;;;;;4902386;29;20063;-96
2022/08/05 14:02:17;;;;;;;6.10;1.60;;;;;;;;;;4953643;23;19950;-92
2022/08/05 14:05:18;;;;;;;4.47;1.40;;;;;;;;;;4969658;28;20134;-92
2022/08/05 14:10:54;;;;;;;5.47;2.13;;;;;;;;;;5628635;23;20054;-92
2022/08/05 14:14:07;;;;;;;3.53;1.52;;;;;;;;;;4959760;28;20073;-93
2022/08/05 14:17:03;;;;;;;2.97;1.10;;;;;;;;;;4987874;28;20073;-93
2022/08/05 14:19:42;;;;;;;8.50;2.15;;;;;;;;;;4979186;28;20046;-93
2022/08/05 14:22:49;;;;;;;3.65;1.45;;;;;;;;;;4970371;28;20194;-92
2022/08/05 14:25:21;;;;;;;3.20;1.33;;;;;;;;;;4990017;28;20626;-93
2022/08/05 15:13:00;;;;;;;4.25;1.85;;;;;;;;;;5953654;23;20029;-91
2022/08/05 15:15:41;;;;;;;4.68;1.88;;;;;;;;;;4955443;28;20113;-92
2022/08/05 15:18:34;;;;;;;5.07;1.90;;;;;;;;;;4977057;28;20058;-96
2022/08/05 15:21:28;;;;;;;4.88;1.98;;;;;;;;;;4960322;28;20499;-96
2022/08/05 15:23:58;;;;;;;4.40;2.00;;;;;;;;;;4957620;28;20061;-96
2022/08/05 15:26:34;;;;;;;4.35;1.80;;;;;;;;;;4960426;28;20074;-96
2022/08/05 15:29:04;;;;;;;3.50;1.65;;;;;;;;;;4981166;28;20125;-96
2022/08/05 15:31:40;;;;;;;6.05;1.90;;;;;;;;;;4979744;28;20130;-96
2022/08/05 15:34:21;;;;;;;4.18;2.00;;;;;;;;;;4995636;28;20089;-96
2022/08/05 15:37:03;;;;;;;5.07;1.73;;;;;;;;;;4981464;28;20075;-96
2022/08/05 15:40:07;;;;;;;3.55;1.80;;;;;;;;;;4971244;29;20063;-96
2022/08/05 15:43:02;;;;;;;;;;;;;;;;;;4953245;29;20054;-96
2022/08/05 15:45:49;;;;;;;4.40;2.03;;;;;;;;;;4958356;29;19941;-96
2022/08/05 15:48:30;;;;;;;4.18;1.95;;;;;;;;;;4966465;28;20065;-92
2022/08/05 15:51:02;;;;;;;7.00;1.90;;;;;;;;;;4957354;28;20949;-90
2022/08/05 15:53:35;;;;;;;3.50;1.55;;;;;;;;;;4956348;28;20058;-91
2022/08/05 15:56:24;;;;;;;6.30;2.17;;;;;;;;;;4973655;28;20062;-91
2022/08/05 15:58:57;;;;;;;5.70;2.92;;;;;;;;;;4973504;28;20061;-96
2022/08/05 16:01:25;;;;;;;4.80;2.35;;;;;;;;;;4969242;28;20061;-96
2022/08/05 16:04:01;;;;;;;4.95;1.70;;;;;;;;;;4965083;28;20126;-94
2022/08/05 16:06:29;;;;;;;2.60;1.45;;;;;;;;;;4943166;29;20492;-90
2022/08/05 16:08:57;;;;;;;3.88;1.40;;;;;;;;;;4969422;28;20062;-90
2022/08/05 16:11:25;;;;;;;3.45;1.23;;;;;;;;;;4957457;28;20821;-90
2022/08/05 16:14:10;;;;;;;2.83;1.20;;;;;;;;;;4962211;28;20047;-90
2022/08/05 16:17:09;;;;;;;3.83;1.13;;;;;;;;;;4962719;28;20058;-96
2022/08/05 16:19:38;;;;;;;3.25;1.17;;;;;;;;;;4949855;28;20058;-96
2022/08/05 16:22:27;;;;;;;2.95;1.40;;;;;;;;;;4948115;28;20039;-96
2022/08/05 16:28:02;;;;;;;2.90;1.08;;;;;;;;;;4938864;28;20047;-90
2022/08/05 16:30:33;;;;;;;6.03;1.15;;;;;;;;;;4946086;28;20051;-90
2022/08/05 16:33:03;;;;;;;3.95;1.20;;;;;;;;;;4970620;28;20047;-90
2022/08/05 16:35:34;;;;;;;3.13;1.45;;;;;;;;;;4976108;28;20065;-90
2022/08/05 16:38:11;;;;;;;3.17;1.25;;;;;;;;;;4970190;28;20145;-90
2022/08/05 16:40:56;;;;;;;4.07;1.30;;;;;;;;;;4973614;28;20042;-90
2022/08/05 16:43:33;;;;;;;3.45;1.25;;;;;;;;;;4964004;28;20138;-90
2022/08/05 16:46:04;;;;;;;2.30;1.13;;;;;;;;;;4951965;28;20094;-96
2022/08/05 16:48:51;;;;;;;5.53;1.20;;;;;;;;;;4959654;28;20046;-90
2022/08/05 16:51:44;;;;;;;3.45;1.20;;;;;;;;;;4969324;28;20043;-90
2022/08/05 16:54:47;;;;;;;4.38;1.30;;;;;;;;;;4964885;28;20043;-90
2022/08/05 16:57:24;;;;;;;1.98;1.00;;;;;;;;;;4974938;28;20138;-90
2022/08/05 17:00:12;;;;;;;3.55;1.45;;;;;;;;;;4949449;28;20074;-90
2022/08/05 17:06:09;;;;;;;3.90;0.90;;;;;;;;;;4975340;28;20055;-90
2022/08/05 17:08:40;;;;;;;2.97;1.50;;;;;;;;;;4967677;28;20055;-96
2022/08/05 17:11:26;;;;;;;4.20;1.08;;;;;;;;;;4968458;28;20078;-96
2022/08/05 17:13:53;;;;;;;3.67;1.30;;;;;;;;;;4933724;28;20082;-96
2022/08/05 17:16:45;;;;;;;2.42;1.10;;;;;;;;;;4964692;28;20039;-90
2022/08/05 17:19:19;;;;;;;2.58;1.00;;;;;;;;;;4955725;28;20058;-90
2022/08/05 17:21:51;;;;;;;6.10;1.00;;;;;;;;;;4961973;28;20128;-90
2022/08/05 17:24:21;;;;;;;2.67;0.85;;;;;;;;;;4976973;28;20043;-90
2022/08/05 17:27:09;;;;;;;2.33;1.00;;;;;;;;;;4954436;28;20051;-90
2022/08/05 17:29:37;;;;;;;1.67;0.80;;;;;;;;;;4956371;28;20137;-90
2022/08/05 17:32:09;;;;;;;4.55;0.98;;;;;;;;;;4939732;28;20058;-90
2022/08/05 17:35:17;;;;;;;4.40;1.00;;;;;;;;;;4959490;28;20054;-90
2022/08/05 17:37:48;;;;;;;1.95;0.73;;;;;;;;;;4980564;28;20043;-96
2022/08/05 17:40:21;;;;;;;1.50;0.77;;;;;;;;;;4954272;28;20066;-96
2022/08/05 17:42:50;;;;;;;3.28;0.82;;;;;;;;;;4937075;28;20564;-96
2022/08/05 17:45:21;;;;;;;1.98;0.77;;;;;;;;;;4953242;28;20051;-96
2022/08/05 17:47:50;;;;;;;3.15;0.70;;;;;;;;;;4944375;28;20046;-90
2022/08/05 17:50:23;;;;;;;3.03;0.80;;;;;;;;;;4954093;28;20054;-90
2022/08/05 17:52:57;;;;;;;1.23;0.60;;;;;;;;;;4940347;28;20059;-90
2022/08/05 17:55:26;;;;;;;1.83;0.70;;;;;;;;;;4948999;28;20097;-90
2022/08/05 17:58:08;;;;;;;2.38;0.60;;;;;;;;;;4965889;28;20061;-96
2022/08/05 18:00:43;;;;;;;2.03;0.70;;;;;;;;;;4950422;28;20043;-96
2022/08/05 18:03:18;;;;;;;1.92;0.77;;;;;;;;;;4976175;28;20042;-95
2022/08/05 18:06:28;;;;;;;4.72;0.85;;;;;;;;;;4972151;28;20061;-95
2022/08/05 18:09:04;;;;;;;2.15;0.50;;;;;;;;;;4942326;28;20102;-95
2022/08/05 18:11:41;;;;;;;4.88;0.90;;;;;;;;;;4941968;28;20585;-95
2022/08/05 18:14:09;;;;;;;0.93;0.43;;;;;;;;;;4941885;28;20218;-94
2022/08/05 18:16:47;;;;;;;2.67;0.75;;;;;;;;;;4940842;28;20070;-94
2022/08/05 18:19:39;;;;;;;1.60;0.85;;;;;;;;;;4957160;28;20480;-94
2022/08/05 18:22:11;;;;;;;2.22;0.70;;;;;;;;;;4957639;28;20097;-94
2022/08/05 18:24:49;;;;;;;1.77;0.43;;;;;;;;;;4957014;28;20101;-96
2022/08/05 18:27:17;;;;;;;3.17;0.65;;;;;;;;;;4940613;28;20453;-89
2022/08/05 18:29:46;;;;;;;2.85;0.60;;;;;;;;;;4972262;28;20133;-90
2022/08/05 18:32:22;;;;;;;2.70;0.68;;;;;;;;;;4956730;28;20143;-89
2022/08/05 18:34:56;;;;;;;2.05;0.80;;;;;;;;;;4962701;28;20054;-89
2022/08/05 18:37:29;;;;;;;3.33;0.40;;;;;;;;;;4957491;28;20043;-89
2022/08/05 18:40:13;;;;;;;4.32;0.63;;;;;;;;;;4950201;28;20057;-89
2022/08/05 18:43:32;;;;;;;3.92;0.60;;;;;;;;;;4973358;28;20399;-89
2022/08/05 18:46:09;;;;;;;1.23;0.50;;;;;;;;;;4953863;28;20153;-96
2022/08/05 18:48:43;;;;;;;2.95;0.73;;;;;;;;;;4946089;28;20568;-89
2022/08/05 18:54:19;;;;;;;1.67;0.60;;;;;;;;;;4955783;28;20149;-89